LFLB 200130Z AUTO 17004KT 140V220 CAVOK 15/14 Q1024 LFLB 200100Z AUTO VRB02KT CAVOK 16/15 Q1024 LFLB 200030Z AUTO VRB02KT CAVOK 16/14 Q1024 LFLB 200000Z AUTO VRB02KT CAVOK 16/15 Q1024 LFLB 192330Z AUTO VRB01KT CAVOK 16/15 Q1024 LFLB 192300Z AUTO 18003KT CAVOK 17/16 Q1023 LFLB 192230Z AUTO 00000KT CAVOK 18/15 Q1023 LFLB 192200Z AUTO 00000KT CAVOK 19/16 Q1023 LFLB 192130Z AUTO VRB01KT CAVOK 19/16 Q1023 LFLB 192100Z AUTO VRB02KT CAVOK 20/16 Q1023 LFLB 192030Z AUTO 00000KT CAVOK 20/16 Q1023 LFLB 192000Z AUTO VRB02KT CAVOK 21/17 Q1023 LFLB 191930Z AUTO VRB02KT CAVOK 23/17 Q1022 LFLB 191900Z AUTO VRB02KT CAVOK 22/18 Q1022 TEMPO FEW080TCU LFLB 191830Z AUTO 01003KT CAVOK 24/19 Q1022 TEMPO FEW080TCU LFLB 191800Z AUTO VRB02KT CAVOK 25/18 Q1022 TEMPO 4000 TSRA FEW080TCU LFLB 191730Z AUTO VRB02KT 9999 FEW060 SCT170 27/19 Q1022 TEMPO 4000 TSRA FEW080TCU LFLB 191700Z AUTO 02003KT CAVOK 26/20 Q1022 TEMPO 4000 TSRA BKN060CB LFLB 191630Z AUTO 35004KT CAVOK 27/19 Q1022 TEMPO 4000 TSRA BKN060CB LFLB 191600Z AUTO 35005KT 9000 NSC 29/18 Q1022 TEMPO VRB15KT 4000 TSRA BKN060CB LFLB 191530Z AUTO 34006KT 320V020 8000 NSC 28/17 Q1022 TEMPO 4000 TSRA BKN060CB LFLB 191500Z AUTO 33007KT 6000 NSC 28/17 Q1022 TEMPO 4000 TSRA BKN060CB LFLB 191430Z AUTO 35009KT 6000 NSC 28/17 Q1022 TEMPO 4000 TSRA BKN060CB LFLB 191400Z AUTO 36011KT 7000 NSC 27/17 Q1022 TEMPO 4000 TSRA BKN060CB BECMG 18008KT LFLB 191330Z AUTO 36012KT 8000 //////TCU 26/18 Q1023 TEMPO 4000 TSRA BKN060CB BECMG 18008KT LFLB 191300Z AUTO 36013KT 9999 //////CB 28/18 Q1023 TEMPO 4000 TSRA BECMG 18008KT LFLB 191230Z AUTO 01008KT 340V040 9000 //////CB 27/19 Q1022 TEMPO 4000 TSRA LFLB 191200Z AUTO 02007KT 9999 //////CB 26/18 Q1022 NOSIG LFLB 191130Z AUTO 35007KT 8000 FEW032/// BKN140/// OVC220/// //////TCU 26/18 Q1022 NOSIG LFLB 191100Z AUTO 35006KT 8000 NSC 26/19 Q1022 TEMPO FEW080TCU LFLB 191030Z AUTO 35008KT 8000 NSC 26/17 Q1023 TEMPO FEW080TCU LFLB 191000Z AUTO 35007KT 320V020 9000 NSC 26/18 Q1023 NOSIG LFLB 190930Z AUTO 34006KT 9000 NSC 25/17 Q1023 NOSIG LFLB 190900Z AUTO VRB04KT 9000 NSC 26/17 Q1023 NOSIG LFLB 190830Z AUTO 11004KT 080V160 8000 NSC 25/17 Q1023 NOSIG LFLB 190800Z AUTO 13006KT 100V170 8000 NSC 24/16 Q1023 NOSIG LFLB 190730Z AUTO 16010KT 9000 NSC 23/16 Q1023 NOSIG LFLB 190700Z AUTO 18007KT 160V220 CAVOK 21/16 Q1023 NOSIG LFLB 190630Z AUTO 17006KT 120V200 CAVOK 21/16 Q1023 NOSIG LFLB 190600Z AUTO 21004KT 160V250 CAVOK 20/16 Q1023 NOSIG LFLB 190530Z AUTO 17003KT 140V200 CAVOK 19/16 Q1023 NOSIG LFLB 190500Z AUTO 20003KT 160V230 CAVOK 17/15 Q1023 NOSIG LFLB 190430Z AUTO 24002KT CAVOK 16/14 Q1023 TEMPO 18010KT LFLB 190400Z AUTO VRB02KT CAVOK 16/14 Q1022 NOSIG LFLB 190330Z AUTO VRB03KT CAVOK 17/14 Q1022 NOSIG LFLB 190300Z AUTO VRB02KT CAVOK 18/14 Q1022 NOSIG LFLB 190230Z AUTO VRB02KT CAVOK 18/14 Q1022 LFLB 190200Z AUTO 21003KT 180V240 CAVOK 19/14 Q1021 LFLB 190130Z AUTO 20005KT 170V230 CAVOK 19/14 Q1021 LFLB 190100Z AUTO 22004KT 180V270 CAVOK 19/14 Q1021 LFLB 190030Z AUTO 18006KT CAVOK 20/14 Q1021 LFLB 190000Z AUTO 18009KT CAVOK 21/13 Q1021 LFLB 182330Z AUTO 17010KT CAVOK 21/13 Q1021 LFLB 182300Z AUTO 21006KT 170V270 9999 //////CB 24/14 Q1020 LFLB 182230Z AUTO 20008KT 170V250 9999 SCT088/// BKN140/// //////CB 25/14 Q1021 BECMG NSC LFLB 182200Z AUTO 15010KT 9999 BKN086/// ///CB 22/16 Q1020 BECMG NSC LFLB 182130Z AUTO VRB03KT 9999 ///CB 20/15 Q1020 BECMG NSC LFLB 182100Z AUTO 17004KT CAVOK 20/15 Q1019 NOSIG LFLB 182030Z AUTO 19004KT CAVOK 21/15 Q1019 NOSIG LFLB 182000Z AUTO 17002KT 9999 FEW088 21/16 Q1019 NOSIG LFLB 181930Z AUTO VRB03KT 9999 BKN088 BKN140 23/16 Q1019 NOSIG LFLB 181900Z AUTO VRB02KT 9999 BKN090 24/18 Q1018 NOSIG LFLB 181830Z AUTO VRB02KT 9999 BKN086 25/17 Q1018 NOSIG LFLB 181800Z AUTO 15002KT CAVOK 26/18 Q1018 NOSIG LFLB 181730Z AUTO VRB01KT CAVOK 29/20 Q1018 NOSIG LFLB 181700Z AUTO 00000KT CAVOK 29/20 Q1018 NOSIG LFLB 181630Z AUTO VRB02KT CAVOK 29/19 Q1018 NOSIG LFLB 181600Z AUTO 33004KT 300V360 CAVOK 29/17 Q1018 NOSIG LFLB 181530Z AUTO 34005KT 8000 NSC 29/18 Q1018 NOSIG LFLB 181500Z AUTO 35006KT 9000 NSC 30/16 Q1018 NOSIG LFLB 181430Z AUTO 33005KT 300V360 9000 NSC 29/17 Q1018 NOSIG LFLB 181400Z AUTO 34007KT 9000 NSC 30/16 Q1018 NOSIG

METAR Messwerte "CHAMBERY/AIX BAI" LFLB

Zurück zur Übersicht

Ortsname
Ländercode / m ü. NN
Zeit Temperatur Taupunkt Rel.
Luftfeuchte
Luftdruck:
Altimeter
NN
Station
Wind in Beaufort
(Knoten)
Sichtweite
(Meter)
Wolken
(Meter über Grund)
Wettererscheinung
CHAMBERY/AIX BAI
FR 234
Fr 20.05. 03:30151494 %1024
1024
996
S 2 (4)
SO - SW
>= 10000Nicht signifikant 
CHAMBERY/AIX BAI
FR 234
Fr 20.05. 03:00161594 %1024
1024
996
Uml 1 (2)>= 10000Nicht signifikant 
CHAMBERY/AIX BAI
FR 234
Fr 20.05. 02:30161488 %1024
1024
996
Uml 1 (2)>= 10000Nicht signifikant 
CHAMBERY/AIX BAI
FR 234
Fr 20.05. 02:00161594 %1024
1024
996
Uml 1 (2)>= 10000Nicht signifikant 
CHAMBERY/AIX BAI
FR 234
Fr 20.05. 01:30161594 %1024
1024
996
Uml 1 (1)>= 10000Nicht signifikant 
CHAMBERY/AIX BAI
FR 234
Fr 20.05. 01:00171694 %1023
1023
995
S 2 (3)>= 10000Nicht signifikant 
CHAMBERY/AIX BAI
FR 234
Fr 20.05. 00:30181583 %1023
1023
995
Windstill>= 10000Nicht signifikant 
CHAMBERY/AIX BAI
FR 234
Fr 20.05. 00:00191683 %1023
1023
995
Windstill>= 10000Nicht signifikant 
CHAMBERY/AIX BAI
FR 234
Do 19.05. 23:30191683 %1023
1023
995
Uml 1 (1)>= 10000Nicht signifikant 
CHAMBERY/AIX BAI
FR 234
Do 19.05. 23:00201678 %1023
1023
995
Uml 1 (2)>= 10000Nicht signifikant 
CHAMBERY/AIX BAI
FR 234
Do 19.05. 22:30201678 %1023
1023
995
Windstill>= 10000Nicht signifikant 
CHAMBERY/AIX BAI
FR 234
Do 19.05. 22:00211778 %1023
1022
995
Uml 1 (2)>= 10000Nicht signifikant 
CHAMBERY/AIX BAI
FR 234
Do 19.05. 21:30231769 %1022
1021
994
Uml 1 (2)>= 10000Nicht signifikant 
CHAMBERY/AIX BAI
FR 234
Do 19.05. 21:00221878 %1022
1021
994
Uml 1 (2)>= 10000Nicht signifikant 
CHAMBERY/AIX BAI
FR 234
Do 19.05. 20:30241974 %1022
1021
994
N 2 (3)>= 10000Nicht signifikant 
CHAMBERY/AIX BAI
FR 234
Do 19.05. 20:00251865 %1022
1021
994
Uml 1 (2)>= 10000
Bald zeitweise: 4000
Nicht signifikant Bald zeitweise: Gewitter mit Regen
CHAMBERY/AIX BAI
FR 234
Do 19.05. 19:30271962 %1022
1021
994
Uml 1 (2)>= 10000
Bald zeitweise: 4000
Wolkig (5200)
Leicht bewölkt (1800)
 Bald zeitweise: Gewitter mit Regen
CHAMBERY/AIX BAI
FR 234
Do 19.05. 19:00262070 %1022
1021
994
NNO 2 (3)>= 10000
Bald zeitweise: 4000
Nicht signifikant Bald zeitweise: Gewitter mit Regen
CHAMBERY/AIX BAI
FR 234
Do 19.05. 18:30271962 %1022
1021
994
N 2 (4)>= 10000
Bald zeitweise: 4000
Nicht signifikant Bald zeitweise: Gewitter mit Regen
CHAMBERY/AIX BAI
FR 234
Do 19.05. 18:00291852 %1022
1021
994
N 2 (5)
Bald zeitweise:
Uml 4 (15)
9000
Bald zeitweise: 4000
Nicht signifikant Bald zeitweise: Gewitter mit Regen
CHAMBERY/AIX BAI
FR 234
Do 19.05. 17:30281751 %1022
1021
994
NNW 2 (6)
NW - NNO
8000
Bald zeitweise: 4000
Nicht signifikant Bald zeitweise: Gewitter mit Regen
CHAMBERY/AIX BAI
FR 234
Do 19.05. 17:00281751 %1022
1021
994
NNW 3 (7)6000
Bald zeitweise: 4000
Nicht signifikant Bald zeitweise: Gewitter mit Regen
CHAMBERY/AIX BAI
FR 234
Do 19.05. 16:30281751 %1022
1021
994
N 3 (9)6000
Bald zeitweise: 4000
Nicht signifikant Bald zeitweise: Gewitter mit Regen
CHAMBERY/AIX BAI
FR 234
Do 19.05. 16:00271754 %1022
1021
994
N 4 (11)7000
Bald zeitweise: 4000
Nicht signifikant Bald zeitweise: Gewitter mit Regen
CHAMBERY/AIX BAI
FR 234
Do 19.05. 15:30261861 %1023
1022
995
N 4 (12)8000
Bald zeitweise: 4000
  Bald zeitweise: Gewitter mit Regen
CHAMBERY/AIX BAI
FR 234
Do 19.05. 15:00281855 %1023
1022
995
N 4 (13)>= 10000
Bald zeitweise: 4000
  Bald zeitweise: Gewitter mit Regen
CHAMBERY/AIX BAI
FR 234
Do 19.05. 14:30271962 %1022
1021
994
N 3 (8)
NNW - NO
9000
Bald zeitweise: 4000
  Bald zeitweise: Gewitter mit Regen
CHAMBERY/AIX BAI
FR 234
Do 19.05. 14:00261861 %1022
1021
994
NNO 3 (7)>= 10000  
CHAMBERY/AIX BAI
FR 234
Do 19.05. 13:30261861 %1022
1021
994
N 3 (7)8000Bedeckt (6700)
Stark bewölkt (4300)
Leicht bewölkt (980)
 
CHAMBERY/AIX BAI
FR 234
Do 19.05. 13:00261965 %1022
1021
994
N 2 (6)8000Nicht signifikant 
CHAMBERY/AIX BAI
FR 234
Do 19.05. 12:30261758 %1023
1022
995
N 3 (8)8000Nicht signifikant 
CHAMBERY/AIX BAI
FR 234
Do 19.05. 12:00261861 %1023
1022
995
N 3 (7)
NW - NNO
9000Nicht signifikant 
CHAMBERY/AIX BAI
FR 234
Do 19.05. 11:30251761 %1023
1022
995
NNW 2 (6)9000Nicht signifikant 
CHAMBERY/AIX BAI
FR 234
Do 19.05. 11:00261758 %1023
1022
995
Uml 2 (4)9000Nicht signifikant 
CHAMBERY/AIX BAI
FR 234
Do 19.05. 10:30251761 %1023
1022
995
OSO 2 (4)
O - SSO
8000Nicht signifikant 
CHAMBERY/AIX BAI
FR 234
Do 19.05. 10:00241661 %1023
1022
995
SO 2 (6)
O - S
8000Nicht signifikant 
CHAMBERY/AIX BAI
FR 234
Do 19.05. 09:30231665 %1023
1022
995
SSO 3 (10)9000Nicht signifikant 
CHAMBERY/AIX BAI
FR 234
Do 19.05. 09:00211673 %1023
1022
995
S 3 (7)
SSO - SW
>= 10000Nicht signifikant 
CHAMBERY/AIX BAI
FR 234
Do 19.05. 08:30211673 %1023
1022
995
S 2 (6)
OSO - SSW
>= 10000Nicht signifikant 
CHAMBERY/AIX BAI
FR 234
Do 19.05. 08:00201678 %1023
1023
995
SSW 2 (4)
SSO - WSW
>= 10000Nicht signifikant 
CHAMBERY/AIX BAI
FR 234
Do 19.05. 07:30191683 %1023
1023
995
S 2 (3)
SO - SSW
>= 10000Nicht signifikant 
CHAMBERY/AIX BAI
FR 234
Do 19.05. 07:00171588 %1023
1023
995
SSW 2 (3)
SSO - SW
>= 10000Nicht signifikant 
CHAMBERY/AIX BAI
FR 234
Do 19.05. 06:30161488 %1023
1023
995
WSW 1 (2)
Bald zeitweise:
S 3 (10)
>= 10000Nicht signifikant 
CHAMBERY/AIX BAI
FR 234
Do 19.05. 06:00161488 %1022
1022
994
Uml 1 (2)>= 10000Nicht signifikant 
CHAMBERY/AIX BAI
FR 234
Do 19.05. 05:30171482 %1022
1022
994
Uml 2 (3)>= 10000Nicht signifikant 
CHAMBERY/AIX BAI
FR 234
Do 19.05. 05:00181477 %1022
1022
994
Uml 1 (2)>= 10000Nicht signifikant 
CHAMBERY/AIX BAI
FR 234
Do 19.05. 04:30181477 %1022
1022
994
Uml 1 (2)>= 10000Nicht signifikant 
CHAMBERY/AIX BAI
FR 234
Do 19.05. 04:00191473 %1021
1021
993
SSW 2 (3)
S - WSW
>= 10000Nicht signifikant 
CHAMBERY/AIX BAI
FR 234
Do 19.05. 03:30191473 %1021
1021
993
SSW 2 (5)
S - SW
>= 10000Nicht signifikant 
CHAMBERY/AIX BAI
FR 234
Do 19.05. 03:00191473 %1021
1021
993
SW 2 (4)
S - W
>= 10000Nicht signifikant 
CHAMBERY/AIX BAI
FR 234
Do 19.05. 02:30201468 %1021
1021
993
S 2 (6)>= 10000Nicht signifikant 
CHAMBERY/AIX BAI
FR 234
Do 19.05. 02:00211360 %1021
1020
993
S 3 (9)>= 10000Nicht signifikant 
CHAMBERY/AIX BAI
FR 234
Do 19.05. 01:30211360 %1021
1020
993
S 3 (10)>= 10000Nicht signifikant 
CHAMBERY/AIX BAI
FR 234
Do 19.05. 01:00241454 %1020
1019
992
SSW 2 (6)
S - W
>= 10000  
CHAMBERY/AIX BAI
FR 234
Do 19.05. 00:30251450 %1021
1020
993
SSW 3 (8)
S - WSW
>= 10000Stark bewölkt (4300)
Wolkig (2700)
 
CHAMBERY/AIX BAI
FR 234
Do 19.05. 00:00221669 %1020
1019
992
SSO 3 (10)>= 10000Stark bewölkt (2600) 
CHAMBERY/AIX BAI
FR 234
Mi 18.05. 23:30201573 %1020
1020
992
Uml 2 (3)>= 10000  
CHAMBERY/AIX BAI
FR 234
Mi 18.05. 23:00201573 %1019
1019
991
S 2 (4)>= 10000Nicht signifikant 
CHAMBERY/AIX BAI
FR 234
Mi 18.05. 22:30211569 %1019
1018
991
S 2 (4)>= 10000Nicht signifikant 
CHAMBERY/AIX BAI
FR 234
Mi 18.05. 22:00211673 %1019
1018
991
S 1 (2)>= 10000Leicht bewölkt (2700) 
CHAMBERY/AIX BAI
FR 234
Mi 18.05. 21:30231665 %1019
1018
991
Uml 2 (3)>= 10000Stark bewölkt (4300)
Stark bewölkt (2700)
 
CHAMBERY/AIX BAI
FR 234
Mi 18.05. 21:00241869 %1018
1017
990
Uml 1 (2)>= 10000Stark bewölkt (2700) 
CHAMBERY/AIX BAI
FR 234
Mi 18.05. 20:30251761 %1018
1017
990
Uml 1 (2)>= 10000Stark bewölkt (2600) 
CHAMBERY/AIX BAI
FR 234
Mi 18.05. 20:00261861 %1018
1017
990
SSO 1 (2)>= 10000Nicht signifikant 
CHAMBERY/AIX BAI
FR 234
Mi 18.05. 19:30292058 %1018
1017
990
Uml 1 (1)>= 10000Nicht signifikant 
CHAMBERY/AIX BAI
FR 234
Mi 18.05. 19:00292058 %1018
1017
990
Windstill>= 10000Nicht signifikant 
CHAMBERY/AIX BAI
FR 234
Mi 18.05. 18:30291955 %1018
1017
990
Uml 1 (2)>= 10000Nicht signifikant 
CHAMBERY/AIX BAI
FR 234
Mi 18.05. 18:00291748 %1018
1017
990
NNW 2 (4)
WNW - N
>= 10000Nicht signifikant 
CHAMBERY/AIX BAI
FR 234
Mi 18.05. 17:30291852 %1018
1017
990
NNW 2 (5)8000Nicht signifikant 
CHAMBERY/AIX BAI
FR 234
Mi 18.05. 17:00301643 %1018
1017
990
N 2 (6)9000Nicht signifikant 
CHAMBERY/AIX BAI
FR 234
Mi 18.05. 16:30291748 %1018
1017
990
NNW 2 (5)
WNW - N
9000Nicht signifikant 
CHAMBERY/AIX BAI
FR 234
Mi 18.05. 16:00301643 %1018
1017
990
NNW 3 (7)9000Nicht signifikant 

Altimeter: Einstellung am Altimeter (Höhenmesser), die Höhe 0 muss auf diesen Luftdruckwert zeigen, damit das Gerät die Stationshöhe richtig anzeigt.

NN: Luftdruck reduziert auf "Normal Null", auf Meereshöhe, dieser von der Temperatur abhängige Wert wird bisweilen unkorrekt einfach als "Luftdruck" bezeichnet. Eigentlich nur eine fiktive Größe, die es erlaubt, Stationen auf unterschiedlichen Höhen miteinander zu vergleichen.

Station: Realer Luftdruck an der Station.